sensor_id;sensor_type;location;lat;lon;timestamp;temperature;humidity
16523;DHT22;19889;52.546;13.348;2023-06-01T00:00:53;19.50;82.80
16523;DHT22;19889;52.546;13.348;2023-06-01T00:03:22;19.50;83.50
16523;DHT22;19889;52.546;13.348;2023-06-01T00:05:52;19.40;82.80
16523;DHT22;19889;52.546;13.348;2023-06-01T00:08:19;19.40;83.30
16523;DHT22;19889;52.546;13.348;2023-06-01T00:10:48;19.40;83.50
16523;DHT22;19889;52.546;13.348;2023-06-01T00:13:15;19.40;84.60
16523;DHT22;19889;52.546;13.348;2023-06-01T00:15:44;19.30;84.10
16523;DHT22;19889;52.546;13.348;2023-06-01T00:18:11;19.30;84.10
16523;DHT22;19889;52.546;13.348;2023-06-01T00:20:41;19.30;84.30
16523;DHT22;19889;52.546;13.348;2023-06-01T00:23:08;19.30;84.90
16523;DHT22;19889;52.546;13.348;2023-06-01T00:25:36;19.20;84.60
16523;DHT22;19889;52.546;13.348;2023-06-01T00:28:03;19.20;85.60
16523;DHT22;19889;52.546;13.348;2023-06-01T00:30:30;19.50;84.90
16523;DHT22;19889;52.546;13.348;2023-06-01T00:32:58;19.10;85.30
16523;DHT22;19889;52.546;13.348;2023-06-01T00:35:25;19.00;85.80
16523;DHT22;19889;52.546;13.348;2023-06-01T00:37:52;19.10;84.90
16523;DHT22;19889;52.546;13.348;2023-06-01T00:40:21;19.10;85.40
16523;DHT22;19889;52.546;13.348;2023-06-01T00:42:47;19.10;86.50
16523;DHT22;19889;52.546;13.348;2023-06-01T00:45:14;19.10;87.50
16523;DHT22;19889;52.546;13.348;2023-06-01T00:47:43;19.10;88.20
16523;DHT22;19889;52.546;13.348;2023-06-01T00:50:12;19.30;88.50
16523;DHT22;19889;52.546;13.348;2023-06-01T00:52:40;19.10;88.90
16523;DHT22;19889;52.546;13.348;2023-06-01T00:55:10;19.00;88.60
16523;DHT22;19889;52.546;13.348;2023-06-01T00:57:37;19.00;89.50
16523;DHT22;19889;52.546;13.348;2023-06-01T01:00:06;18.90;88.60
16523;DHT22;19889;52.546;13.348;2023-06-01T01:02:36;18.90;89.40
16523;DHT22;19889;52.546;13.348;2023-06-01T01:05:05;17.70;89.30
16523;DHT22;19889;52.546;13.348;2023-06-01T01:07:47;18.80;89.60
16523;DHT22;19889;52.546;13.348;2023-06-01T01:10:22;18.80;90.20
16523;DHT22;19889;52.546;13.348;2023-06-01T01:13:03;18.80;90.30
16523;DHT22;19889;52.546;13.348;2023-06-01T01:15:40;18.70;89.30
16523;DHT22;19889;52.546;13.348;2023-06-01T01:18:16;18.70;89.40
16523;DHT22;19889;52.546;13.348;2023-06-01T01:20:51;18.70;89.90
16523;DHT22;19889;52.546;13.348;2023-06-01T01:23:55;18.70;89.30
16523;DHT22;19889;52.546;13.348;2023-06-01T01:26:36;18.60;89.10
16523;DHT22;19889;52.546;13.348;2023-06-01T01:29:09;18.60;89.20
16523;DHT22;19889;52.546;13.348;2023-06-01T01:31:38;18.50;89.10
16523;DHT22;19889;52.546;13.348;2023-06-01T01:34:06;18.50;89.30
16523;DHT22;19889;52.546;13.348;2023-06-01T01:36:35;18.50;89.70
16523;DHT22;19889;52.546;13.348;2023-06-01T01:39:02;18.50;89.90
16523;DHT22;19889;52.546;13.348;2023-06-01T01:41:31;18.40;89.90
16523;DHT22;19889;52.546;13.348;2023-06-01T01:43:58;18.40;90.00
16523;DHT22;19889;52.546;13.348;2023-06-01T01:46:28;18.30;90.10
16523;DHT22;19889;52.546;13.348;2023-06-01T01:49:02;18.30;90.20
16523;DHT22;19889;52.546;13.348;2023-06-01T01:51:40;18.30;90.20
16523;DHT22;19889;52.546;13.348;2023-06-01T01:54:10;18.30;90.50
16523;DHT22;19889;52.546;13.348;2023-06-01T01:56:39;18.30;90.50
16523;DHT22;19889;52.546;13.348;2023-06-01T01:59:07;18.20;90.70
16523;DHT22;19889;52.546;13.348;2023-06-01T02:01:35;18.20;91.10
16523;DHT22;19889;52.546;13.348;2023-06-01T02:04:06;18.20;91.20
16523;DHT22;19889;52.546;13.348;2023-06-01T02:06:33;18.10;90.90
16523;DHT22;19889;52.546;13.348;2023-06-01T02:09:02;17.30;90.90
16523;DHT22;19889;52.546;13.348;2023-06-01T02:11:32;18.50;91.60
16523;DHT22;19889;52.546;13.348;2023-06-01T02:13:59;18.10;92.30
16523;DHT22;19889;52.546;13.348;2023-06-01T02:16:26;18.10;93.30
16523;DHT22;19889;52.546;13.348;2023-06-01T02:18:55;18.20;93.40
16523;DHT22;19889;52.546;13.348;2023-06-01T02:21:25;18.00;92.40
16523;DHT22;19889;52.546;13.348;2023-06-01T02:23:52;17.90;92.10
16523;DHT22;19889;52.546;13.348;2023-06-01T02:26:19;17.80;92.40
16523;DHT22;19889;52.546;13.348;2023-06-01T02:28:46;17.80;92.70
16523;DHT22;19889;52.546;13.348;2023-06-01T02:31:14;17.90;93.50
16523;DHT22;19889;52.546;13.348;2023-06-01T02:33:41;17.90;94.40
16523;DHT22;19889;52.546;13.348;2023-06-01T02:36:09;17.80;94.20
16523;DHT22;19889;52.546;13.348;2023-06-01T02:38:36;17.80;94.40
16523;DHT22;19889;52.546;13.348;2023-06-01T02:41:03;17.80;94.70
16523;DHT22;19889;52.546;13.348;2023-06-01T02:43:33;17.70;94.50
16523;DHT22;19889;52.546;13.348;2023-06-01T02:46:01;17.70;95.30
16523;DHT22;19889;52.546;13.348;2023-06-01T02:48:29;17.70;95.00
16523;DHT22;19889;52.546;13.348;2023-06-01T02:50:56;17.60;95.10
16523;DHT22;19889;52.546;13.348;2023-06-01T02:53:25;17.60;94.90
16523;DHT22;19889;52.546;13.348;2023-06-01T02:55:53;17.60;94.70
16523;DHT22;19889;52.546;13.348;2023-06-01T02:58:38;17.60;95.50
16523;DHT22;19889;52.546;13.348;2023-06-01T03:01:17;17.50;94.50
16523;DHT22;19889;52.546;13.348;2023-06-01T03:03:47;17.40;92.90
16523;DHT22;19889;52.546;13.348;2023-06-01T03:06:14;17.40;93.10
16523;DHT22;19889;52.546;13.348;2023-06-01T03:09:14;17.40;93.10
16523;DHT22;19889;52.546;13.348;2023-06-01T03:11:57;17.30;93.20
16523;DHT22;19889;52.546;13.348;2023-06-01T03:14:24;17.30;93.30
16523;DHT22;19889;52.546;13.348;2023-06-01T03:16:51;17.30;93.70
16523;DHT22;19889;52.546;13.348;2023-06-01T03:19:20;17.20;93.40
16523;DHT22;19889;52.546;13.348;2023-06-01T03:21:50;17.40;96.70
16523;DHT22;19889;52.546;13.348;2023-06-01T03:24:21;17.20;96.60
16523;DHT22;19889;52.546;13.348;2023-06-01T03:26:54;17.40;96.00
16523;DHT22;19889;52.546;13.348;2023-06-01T03:29:22;17.20;95.10
16523;DHT22;19889;52.546;13.348;2023-06-01T03:31:49;17.10;97.30
16523;DHT22;19889;52.546;13.348;2023-06-01T03:34:20;17.40;99.10
16523;DHT22;19889;52.546;13.348;2023-06-01T03:36:47;17.10;99.10
16523;DHT22;19889;52.546;13.348;2023-06-01T03:39:14;17.00;94.40
16523;DHT22;19889;52.546;13.348;2023-06-01T03:41:44;16.90;94.40
16523;DHT22;19889;52.546;13.348;2023-06-01T03:44:11;16.90;94.70
16523;DHT22;19889;52.546;13.348;2023-06-01T03:46:39;16.90;94.70
16523;DHT22;19889;52.546;13.348;2023-06-01T03:49:06;16.80;94.70
16523;DHT22;19889;52.546;13.348;2023-06-01T03:51:34;16.80;94.80
16523;DHT22;19889;52.546;13.348;2023-06-01T03:54:01;16.80;95.00
16523;DHT22;19889;52.546;13.348;2023-06-01T03:56:28;16.80;95.20
16523;DHT22;19889;52.546;13.348;2023-06-01T03:59:00;16.70;95.20
16523;DHT22;19889;52.546;13.348;2023-06-01T04:01:27;16.60;95.20
16523;DHT22;19889;52.546;13.348;2023-06-01T04:03:55;16.60;95.40
16523;DHT22;19889;52.546;13.348;2023-06-01T04:06:23;16.60;95.40
16523;DHT22;19889;52.546;13.348;2023-06-01T04:08:50;16.60;95.60
16523;DHT22;19889;52.546;13.348;2023-06-01T04:11:22;16.60;95.70
16523;DHT22;19889;52.546;13.348;2023-06-01T04:13:50;16.60;95.70
16523;DHT22;19889;52.546;13.348;2023-06-01T04:16:18;16.50;95.80
16523;DHT22;19889;52.546;13.348;2023-06-01T04:18:45;16.60;98.00
16523;DHT22;19889;52.546;13.348;2023-06-01T04:21:20;16.60;99.90
16523;DHT22;19889;52.546;13.348;2023-06-01T04:23:48;16.60;99.90
16523;DHT22;19889;52.546;13.348;2023-06-01T04:26:15;16.50;97.20
16523;DHT22;19889;52.546;13.348;2023-06-01T04:28:44;16.40;97.00
16523;DHT22;19889;52.546;13.348;2023-06-01T04:31:12;16.50;99.90
16523;DHT22;19889;52.546;13.348;2023-06-01T04:33:45;16.70;99.90
16523;DHT22;19889;52.546;13.348;2023-06-01T04:36:19;16.50;99.90
16523;DHT22;19889;52.546;13.348;2023-06-01T04:38:49;16.30;96.70
16523;DHT22;19889;52.546;13.348;2023-06-01T04:41:18;16.30;96.50
16523;DHT22;19889;52.546;13.348;2023-06-01T04:43:47;16.30;96.90
16523;DHT22;19889;52.546;13.348;2023-06-01T04:46:18;16.30;99.90
16523;DHT22;19889;52.546;13.348;2023-06-01T04:48:48;16.60;99.70
16523;DHT22;19889;52.546;13.348;2023-06-01T04:51:17;16.20;96.90
16523;DHT22;19889;52.546;13.348;2023-06-01T04:53:46;16.20;97.00
16523;DHT22;19889;52.546;13.348;2023-06-01T04:56:16;16.10;97.10
16523;DHT22;19889;52.546;13.348;2023-06-01T04:58:44;16.10;97.10
16523;DHT22;19889;52.546;13.348;2023-06-01T05:01:13;16.20;97.20
16523;DHT22;19889;52.546;13.348;2023-06-01T05:03:42;16.00;97.20
16523;DHT22;19889;52.546;13.348;2023-06-01T05:06:12;16.00;97.20
16523;DHT22;19889;52.546;13.348;2023-06-01T05:08:40;16.00;97.40
16523;DHT22;19889;52.546;13.348;2023-06-01T05:11:08;16.00;97.40
16523;DHT22;19889;52.546;13.348;2023-06-01T05:13:37;16.00;97.40
16523;DHT22;19889;52.546;13.348;2023-06-01T05:16:05;15.90;97.50
16523;DHT22;19889;52.546;13.348;2023-06-01T05:18:33;15.90;97.50
16523;DHT22;19889;52.546;13.348;2023-06-01T05:21:00;15.90;97.50
16523;DHT22;19889;52.546;13.348;2023-06-01T05:23:29;15.90;97.50
16523;DHT22;19889;52.546;13.348;2023-06-01T05:25:57;15.90;97.60
16523;DHT22;19889;52.546;13.348;2023-06-01T05:28:30;15.90;97.60
16523;DHT22;19889;52.546;13.348;2023-06-01T05:30:57;15.80;97.90
16523;DHT22;19889;52.546;13.348;2023-06-01T05:33:25;15.80;97.60
16523;DHT22;19889;52.546;13.348;2023-06-01T05:35:53;15.80;97.60
16523;DHT22;19889;52.546;13.348;2023-06-01T05:38:23;15.80;97.50
16523;DHT22;19889;52.546;13.348;2023-06-01T05:40:52;15.80;97.40
16523;DHT22;19889;52.546;13.348;2023-06-01T05:43:19;15.80;97.30
16523;DHT22;19889;52.546;13.348;2023-06-01T05:45:46;15.80;97.40
16523;DHT22;19889;52.546;13.348;2023-06-01T05:48:14;15.80;97.40
16523;DHT22;19889;52.546;13.348;2023-06-01T05:50:46;15.80;97.40
16523;DHT22;19889;52.546;13.348;2023-06-01T05:53:13;15.80;97.40
16523;DHT22;19889;52.546;13.348;2023-06-01T05:55:40;15.80;97.30
16523;DHT22;19889;52.546;13.348;2023-06-01T05:58:08;15.80;97.20
16523;DHT22;19889;52.546;13.348;2023-06-01T06:00:36;15.80;97.20
16523;DHT22;19889;52.546;13.348;2023-06-01T06:03:03;15.80;97.20
16523;DHT22;19889;52.546;13.348;2023-06-01T06:05:31;15.90;97.20
16523;DHT22;19889;52.546;13.348;2023-06-01T06:07:58;15.90;97.10
16523;DHT22;19889;52.546;13.348;2023-06-01T06:10:25;15.90;97.00
16523;DHT22;19889;52.546;13.348;2023-06-01T06:12:52;15.90;97.00
16523;DHT22;19889;52.546;13.348;2023-06-01T06:15:20;15.90;96.90
16523;DHT22;19889;52.546;13.348;2023-06-01T06:17:48;15.90;96.80
16523;DHT22;19889;52.546;13.348;2023-06-01T06:20:15;15.90;96.80
16523;DHT22;19889;52.546;13.348;2023-06-01T06:22:42;15.90;96.80
16523;DHT22;19889;52.546;13.348;2023-06-01T06:25:09;15.90;96.70
16523;DHT22;19889;52.546;13.348;2023-06-01T06:27:37;15.90;96.60
16523;DHT22;19889;52.546;13.348;2023-06-01T06:30:05;16.00;96.60
16523;DHT22;19889;52.546;13.348;2023-06-01T06:32:34;15.90;96.50
16523;DHT22;19889;52.546;13.348;2023-06-01T06:35:01;15.90;96.50
16523;DHT22;19889;52.546;13.348;2023-06-01T06:37:28;15.90;96.50
16523;DHT22;19889;52.546;13.348;2023-06-01T06:39:56;15.90;96.60
16523;DHT22;19889;52.546;13.348;2023-06-01T06:42:24;16.00;96.50
16523;DHT22;19889;52.546;13.348;2023-06-01T06:44:51;16.00;96.40
16523;DHT22;19889;52.546;13.348;2023-06-01T06:47:18;16.00;96.40
16523;DHT22;19889;52.546;13.348;2023-06-01T06:49:47;16.00;96.50
16523;DHT22;19889;52.546;13.348;2023-06-01T06:52:14;16.00;96.50
16523;DHT22;19889;52.546;13.348;2023-06-01T06:54:41;16.00;96.40
16523;DHT22;19889;52.546;13.348;2023-06-01T06:57:08;16.00;96.50
16523;DHT22;19889;52.546;13.348;2023-06-01T06:59:36;16.00;96.40
16523;DHT22;19889;52.546;13.348;2023-06-01T07:02:03;16.60;96.60
16523;DHT22;19889;52.546;13.348;2023-06-01T07:04:30;16.10;96.40
16523;DHT22;19889;52.546;13.348;2023-06-01T07:06:58;16.10;96.30
16523;DHT22;19889;52.546;13.348;2023-06-01T07:09:29;16.10;96.20
16523;DHT22;19889;52.546;13.348;2023-06-01T07:11:56;16.10;96.30
16523;DHT22;19889;52.546;13.348;2023-06-01T07:14:23;16.10;96.20
16523;DHT22;19889;52.546;13.348;2023-06-01T07:16:50;16.10;96.10
16523;DHT22;19889;52.546;13.348;2023-06-01T07:19:17;16.00;96.10
16523;DHT22;19889;52.546;13.348;2023-06-01T07:21:44;16.00;96.10
16523;DHT22;19889;52.546;13.348;2023-06-01T07:24:13;16.00;96.10
16523;DHT22;19889;52.546;13.348;2023-06-01T07:26:40;16.00;96.10
16523;DHT22;19889;52.546;13.348;2023-06-01T07:29:07;16.10;96.10
16523;DHT22;19889;52.546;13.348;2023-06-01T07:31:34;16.10;96.10
16523;DHT22;19889;52.546;13.348;2023-06-01T07:34:01;16.10;96.10
16523;DHT22;19889;52.546;13.348;2023-06-01T07:36:28;16.20;96.00
16523;DHT22;19889;52.546;13.348;2023-06-01T07:39:03;16.20;95.90
16523;DHT22;19889;52.546;13.348;2023-06-01T07:41:33;16.20;95.90
16523;DHT22;19889;52.546;13.348;2023-06-01T07:44:00;16.20;95.90
16523;DHT22;19889;52.546;13.348;2023-06-01T07:46:27;16.30;96.10
16523;DHT22;19889;52.546;13.348;2023-06-01T07:48:54;16.20;95.60
16523;DHT22;19889;52.546;13.348;2023-06-01T07:51:22;16.30;95.60
16523;DHT22;19889;52.546;13.348;2023-06-01T07:53:49;16.20;95.50
16523;DHT22;19889;52.546;13.348;2023-06-01T07:56:16;16.20;95.40
16523;DHT22;19889;52.546;13.348;2023-06-01T07:58:45;16.20;95.40
16523;DHT22;19889;52.546;13.348;2023-06-01T08:01:12;16.30;95.50
16523;DHT22;19889;52.546;13.348;2023-06-01T08:03:42;16.30;95.40
16523;DHT22;19889;52.546;13.348;2023-06-01T08:06:09;16.30;95.50
16523;DHT22;19889;52.546;13.348;2023-06-01T08:08:37;16.40;95.50
16523;DHT22;19889;52.546;13.348;2023-06-01T08:11:04;16.40;95.40
16523;DHT22;19889;52.546;13.348;2023-06-01T08:13:31;16.40;95.40
16523;DHT22;19889;52.546;13.348;2023-06-01T08:16:03;16.40;95.40
16523;DHT22;19889;52.546;13.348;2023-06-01T08:18:30;16.40;95.40
16523;DHT22;19889;52.546;13.348;2023-06-01T08:20:57;16.40;95.40
16523;DHT22;19889;52.546;13.348;2023-06-01T08:23:26;16.50;95.40
16523;DHT22;19889;52.546;13.348;2023-06-01T08:25:53;16.50;95.40
16523;DHT22;19889;52.546;13.348;2023-06-01T08:28:19;16.60;95.40
16523;DHT22;19889;52.546;13.348;2023-06-01T08:30:47;16.60;95.30
16523;DHT22;19889;52.546;13.348;2023-06-01T08:33:15;16.60;95.20
16523;DHT22;19889;52.546;13.348;2023-06-01T08:35:42;16.70;95.20
16523;DHT22;19889;52.546;13.348;2023-06-01T08:38:09;16.70;95.10
16523;DHT22;19889;52.546;13.348;2023-06-01T08:40:36;16.70;95.00
16523;DHT22;19889;52.546;13.348;2023-06-01T08:43:11;16.80;95.00
16523;DHT22;19889;52.546;13.348;2023-06-01T08:45:40;16.80;95.00
16523;DHT22;19889;52.546;13.348;2023-06-01T08:48:08;16.80;94.90
16523;DHT22;19889;52.546;13.348;2023-06-01T08:50:37;16.80;94.90
16523;DHT22;19889;52.546;13.348;2023-06-01T08:53:04;17.50;95.00
16523;DHT22;19889;52.546;13.348;2023-06-01T08:55:32;16.90;94.80
16523;DHT22;19889;52.546;13.348;2023-06-01T08:58:00;17.00;94.80
16523;DHT22;19889;52.546;13.348;2023-06-01T09:00:27;16.90;94.70
16523;DHT22;19889;52.546;13.348;2023-06-01T09:02:57;17.00;94.70
16523;DHT22;19889;52.546;13.348;2023-06-01T09:05:25;17.00;94.70
16523;DHT22;19889;52.546;13.348;2023-06-01T09:07:53;17.00;94.70
16523;DHT22;19889;52.546;13.348;2023-06-01T09:10:23;17.10;94.70
16523;DHT22;19889;52.546;13.348;2023-06-01T09:12:54;17.20;94.70
16523;DHT22;19889;52.546;13.348;2023-06-01T09:15:23;17.20;94.70
16523;DHT22;19889;52.546;13.348;2023-06-01T09:17:52;17.50;94.80
16523;DHT22;19889;52.546;13.348;2023-06-01T09:20:30;17.40;94.70
16523;DHT22;19889;52.546;13.348;2023-06-01T09:22:59;17.70;96.10
16523;DHT22;19889;52.546;13.348;2023-06-01T09:25:28;17.80;95.90
16523;DHT22;19889;52.546;13.348;2023-06-01T09:27:56;17.80;95.00
16523;DHT22;19889;52.546;13.348;2023-06-01T09:30:25;18.10;95.80
16523;DHT22;19889;52.546;13.348;2023-06-01T09:33:09;18.00;95.80
16523;DHT22;19889;52.546;13.348;2023-06-01T09:35:41;17.90;95.60
16523;DHT22;19889;52.546;13.348;2023-06-01T09:38:09;18.10;95.60
16523;DHT22;19889;52.546;13.348;2023-06-01T09:40:38;18.00;95.50
16523;DHT22;19889;52.546;13.348;2023-06-01T09:43:18;18.00;95.40
16523;DHT22;19889;52.546;13.348;2023-06-01T09:46:03;18.00;95.30
16523;DHT22;19889;52.546;13.348;2023-06-01T09:48:31;18.00;95.10
16523;DHT22;19889;52.546;13.348;2023-06-01T09:50:59;18.10;94.80
16523;DHT22;19889;52.546;13.348;2023-06-01T09:53:27;18.00;94.60
16523;DHT22;19889;52.546;13.348;2023-06-01T09:55:58;18.00;95.10
16523;DHT22;19889;52.546;13.348;2023-06-01T09:58:26;18.10;94.80
16523;DHT22;19889;52.546;13.348;2023-06-01T10:00:53;18.10;94.60
16523;DHT22;19889;52.546;13.348;2023-06-01T10:03:21;18.00;94.60
16523;DHT22;19889;52.546;13.348;2023-06-01T10:05:49;18.20;94.60
16523;DHT22;19889;52.546;13.348;2023-06-01T10:08:17;18.10;94.50
16523;DHT22;19889;52.546;13.348;2023-06-01T10:10:47;18.20;94.50
16523;DHT22;19889;52.546;13.348;2023-06-01T10:13:14;18.10;94.40
16523;DHT22;19889;52.546;13.348;2023-06-01T10:15:41;18.10;94.30
16523;DHT22;19889;52.546;13.348;2023-06-01T10:18:08;18.10;94.60
16523;DHT22;19889;52.546;13.348;2023-06-01T10:20:37;18.50;94.40
16523;DHT22;19889;52.546;13.348;2023-06-01T10:23:05;18.30;94.20
16523;DHT22;19889;52.546;13.348;2023-06-01T10:25:35;18.20;94.20
16523;DHT22;19889;52.546;13.348;2023-06-01T10:28:05;18.10;94.10
16523;DHT22;19889;52.546;13.348;2023-06-01T10:30:34;18.20;94.20
16523;DHT22;19889;52.546;13.348;2023-06-01T10:33:02;18.20;94.10
16523;DHT22;19889;52.546;13.348;2023-06-01T10:35:52;18.20;94.10
16523;DHT22;19889;52.546;13.348;2023-06-01T10:38:25;18.20;94.10
16523;DHT22;19889;52.546;13.348;2023-06-01T10:40:52;18.30;93.60
16523;DHT22;19889;52.546;13.348;2023-06-01T10:43:41;18.40;93.60
16523;DHT22;19889;52.546;13.348;2023-06-01T10:46:33;18.30;93.40
16523;DHT22;19889;52.546;13.348;2023-06-01T10:49:02;18.30;93.40
16523;DHT22;19889;52.546;13.348;2023-06-01T10:51:29;18.30;93.40
16523;DHT22;19889;52.546;13.348;2023-06-01T10:54:25;18.30;93.50
16523;DHT22;19889;52.546;13.348;2023-06-01T10:57:18;18.40;93.00
16523;DHT22;19889;52.546;13.348;2023-06-01T11:00:10;18.40;93.10
16523;DHT22;19889;52.546;13.348;2023-06-01T11:02:49;18.40;93.00
16523;DHT22;19889;52.546;13.348;2023-06-01T11:05:41;18.50;92.90
16523;DHT22;19889;52.546;13.348;2023-06-01T11:11:16;18.50;92.90
16523;DHT22;19889;52.546;13.348;2023-06-01T11:14:06;18.50;92.90
16523;DHT22;19889;52.546;13.348;2023-06-01T11:16:34;18.50;92.80
16523;DHT22;19889;52.546;13.348;2023-06-01T11:19:02;18.50;92.70
16523;DHT22;19889;52.546;13.348;2023-06-01T11:21:31;18.50;92.60
16523;DHT22;19889;52.546;13.348;2023-06-01T11:24:04;18.60;93.00
16523;DHT22;19889;52.546;13.348;2023-06-01T11:26:35;18.60;92.50
16523;DHT22;19889;52.546;13.348;2023-06-01T11:29:05;18.60;92.40
16523;DHT22;19889;52.546;13.348;2023-06-01T11:31:37;18.60;92.30
16523;DHT22;19889;52.546;13.348;2023-06-01T11:34:06;18.60;92.40
16523;DHT22;19889;52.546;13.348;2023-06-01T11:36:41;18.60;92.30
16523;DHT22;19889;52.546;13.348;2023-06-01T11:39:22;18.60;92.30
16523;DHT22;19889;52.546;13.348;2023-06-01T11:41:52;18.60;92.40
16523;DHT22;19889;52.546;13.348;2023-06-01T11:44:19;18.60;92.40
16523;DHT22;19889;52.546;13.348;2023-06-01T11:46:51;18.60;92.40
16523;DHT22;19889;52.546;13.348;2023-06-01T11:49:18;18.70;92.40
16523;DHT22;19889;52.546;13.348;2023-06-01T11:51:45;18.70;92.80
16523;DHT22;19889;52.546;13.348;2023-06-01T11:54:12;18.70;92.40
16523;DHT22;19889;52.546;13.348;2023-06-01T11:56:40;18.70;92.30
16523;DHT22;19889;52.546;13.348;2023-06-01T11:59:09;18.80;92.30
16523;DHT22;19889;52.546;13.348;2023-06-01T12:01:42;18.80;92.70
16523;DHT22;19889;52.546;13.348;2023-06-01T12:04:12;18.80;92.30
16523;DHT22;19889;52.546;13.348;2023-06-01T12:06:39;18.80;92.20
16523;DHT22;19889;52.546;13.348;2023-06-01T12:09:12;18.90;92.10
16523;DHT22;19889;52.546;13.348;2023-06-01T12:11:40;19.00;92.10
16523;DHT22;19889;52.546;13.348;2023-06-01T12:14:10;18.90;92.00
16523;DHT22;19889;52.546;13.348;2023-06-01T12:16:57;19.00;91.90
16523;DHT22;19889;52.546;13.348;2023-06-01T12:19:25;19.00;91.70
16523;DHT22;19889;52.546;13.348;2023-06-01T12:21:53;19.00;91.70
16523;DHT22;19889;52.546;13.348;2023-06-01T12:24:28;19.00;91.70
16523;DHT22;19889;52.546;13.348;2023-06-01T12:26:55;19.00;91.70
16523;DHT22;19889;52.546;13.348;2023-06-01T12:29:40;19.00;91.60
16523;DHT22;19889;52.546;13.348;2023-06-01T12:32:09;19.00;91.50
16523;DHT22;19889;52.546;13.348;2023-06-01T12:34:36;19.10;91.60
16523;DHT22;19889;52.546;13.348;2023-06-01T12:37:14;19.10;91.50
16523;DHT22;19889;52.546;13.348;2023-06-01T12:39:41;19.10;92.00
16523;DHT22;19889;52.546;13.348;2023-06-01T12:42:09;19.10;91.60
16523;DHT22;19889;52.546;13.348;2023-06-01T12:44:38;19.20;91.60
16523;DHT22;19889;52.546;13.348;2023-06-01T12:47:07;19.20;91.60
16523;DHT22;19889;52.546;13.348;2023-06-01T12:49:34;19.30;91.50
16523;DHT22;19889;52.546;13.348;2023-06-01T12:52:04;19.30;91.90
16523;DHT22;19889;52.546;13.348;2023-06-01T12:54:31;19.30;91.50
16523;DHT22;19889;52.546;13.348;2023-06-01T12:56:58;19.30;91.50
16523;DHT22;19889;52.546;13.348;2023-06-01T12:59:25;19.40;91.50
16523;DHT22;19889;52.546;13.348;2023-06-01T13:01:54;19.50;91.50
16523;DHT22;19889;52.546;13.348;2023-06-01T13:04:21;19.40;91.30
16523;DHT22;19889;52.546;13.348;2023-06-01T13:06:48;19.40;91.20
16523;DHT22;19889;52.546;13.348;2023-06-01T13:09:16;19.50;91.20
16523;DHT22;19889;52.546;13.348;2023-06-01T13:11:43;19.50;91.20
16523;DHT22;19889;52.546;13.348;2023-06-01T13:14:10;19.50;91.00
16523;DHT22;19889;52.546;13.348;2023-06-01T13:16:37;19.50;91.00
16523;DHT22;19889;52.546;13.348;2023-06-01T13:19:06;19.50;91.00
16523;DHT22;19889;52.546;13.348;2023-06-01T13:21:34;19.50;91.00
16523;DHT22;19889;52.546;13.348;2023-06-01T13:24:01;19.50;90.80
16523;DHT22;19889;52.546;13.348;2023-06-01T13:26:29;19.50;90.80
16523;DHT22;19889;52.546;13.348;2023-06-01T13:28:56;19.60;90.90
16523;DHT22;19889;52.546;13.348;2023-06-01T13:31:23;19.60;90.90
16523;DHT22;19889;52.546;13.348;2023-06-01T13:33:53;19.80;90.90
16523;DHT22;19889;52.546;13.348;2023-06-01T13:36:33;19.40;90.80
16523;DHT22;19889;52.546;13.348;2023-06-01T13:39:00;19.70;90.80
16523;DHT22;19889;52.546;13.348;2023-06-01T13:41:30;19.80;90.80
16523;DHT22;19889;52.546;13.348;2023-06-01T13:43:56;19.80;90.80
16523;DHT22;19889;52.546;13.348;2023-06-01T13:46:24;18.50;90.40
16523;DHT22;19889;52.546;13.348;2023-06-01T13:48:51;19.90;90.80
16523;DHT22;19889;52.546;13.348;2023-06-01T13:51:18;19.90;90.80
16523;DHT22;19889;52.546;13.348;2023-06-01T13:53:46;19.90;90.90
16523;DHT22;19889;52.546;13.348;2023-06-01T13:56:13;19.90;90.90
16523;DHT22;19889;52.546;13.348;2023-06-01T13:58:40;20.00;91.00
16523;DHT22;19889;52.546;13.348;2023-06-01T14:01:07;20.00;90.80
16523;DHT22;19889;52.546;13.348;2023-06-01T14:03:35;20.10;90.80
16523;DHT22;19889;52.546;13.348;2023-06-01T14:06:02;20.10;91.10
16523;DHT22;19889;52.546;13.348;2023-06-01T14:08:29;20.10;90.80
16523;DHT22;19889;52.546;13.348;2023-06-01T14:10:57;20.10;90.80
16523;DHT22;19889;52.546;13.348;2023-06-01T14:13:24;20.10;90.70
16523;DHT22;19889;52.546;13.348;2023-06-01T14:15:51;20.10;90.70
16523;DHT22;19889;52.546;13.348;2023-06-01T14:18:18;20.20;90.80
16523;DHT22;19889;52.546;13.348;2023-06-01T14:20:45;20.20;90.40
16523;DHT22;19889;52.546;13.348;2023-06-01T14:23:12;20.10;90.20
16523;DHT22;19889;52.546;13.348;2023-06-01T14:25:39;20.10;90.20
16523;DHT22;19889;52.546;13.348;2023-06-01T14:28:08;20.10;90.20
16523;DHT22;19889;52.546;13.348;2023-06-01T14:30:34;20.20;90.30
16523;DHT22;19889;52.546;13.348;2023-06-01T14:33:01;20.20;90.30
16523;DHT22;19889;52.546;13.348;2023-06-01T14:35:28;20.20;90.30
16523;DHT22;19889;52.546;13.348;2023-06-01T14:37:56;20.20;90.30
16523;DHT22;19889;52.546;13.348;2023-06-01T14:40:23;20.20;90.30
16523;DHT22;19889;52.546;13.348;2023-06-01T14:42:50;20.30;90.30
16523;DHT22;19889;52.546;13.348;2023-06-01T14:45:18;20.20;90.20
16523;DHT22;19889;52.546;13.348;2023-06-01T14:47:47;20.30;90.10
16523;DHT22;19889;52.546;13.348;2023-06-01T14:50:14;20.30;90.00
16523;DHT22;19889;52.546;13.348;2023-06-01T14:52:41;20.20;90.00
16523;DHT22;19889;52.546;13.348;2023-06-01T14:55:08;20.20;90.00
16523;DHT22;19889;52.546;13.348;2023-06-01T14:57:35;20.20;89.90
16523;DHT22;19889;52.546;13.348;2023-06-01T15:00:03;20.30;89.40
16523;DHT22;19889;52.546;13.348;2023-06-01T15:02:32;20.30;89.10
16523;DHT22;19889;52.546;13.348;2023-06-01T15:05:00;20.30;89.70
16523;DHT22;19889;52.546;13.348;2023-06-01T15:07:27;20.20;88.60
16523;DHT22;19889;52.546;13.348;2023-06-01T15:09:54;20.20;88.60
16523;DHT22;19889;52.546;13.348;2023-06-01T15:12:21;20.30;88.80
16523;DHT22;19889;52.546;13.348;2023-06-01T15:14:48;20.30;88.70
16523;DHT22;19889;52.546;13.348;2023-06-01T15:17:16;20.30;88.80
16523;DHT22;19889;52.546;13.348;2023-06-01T15:19:45;20.30;88.90
16523;DHT22;19889;52.546;13.348;2023-06-01T15:22:12;20.30;88.90
16523;DHT22;19889;52.546;13.348;2023-06-01T15:24:39;20.30;88.80
16523;DHT22;19889;52.546;13.348;2023-06-01T15:27:06;20.30;88.90
16523;DHT22;19889;52.546;13.348;2023-06-01T15:29:34;20.30;89.00
16523;DHT22;19889;52.546;13.348;2023-06-01T15:32:02;20.40;89.00